Terminal Aerodrome Forecast
Issued by NWS

Home | Current Version | Previous Version | Text Only | Print | Product List | Glossary On
Versions: 1 2 3 4 5 6 7 8 9 10 11 12 13 14 15 16 17 18 19 20
000
FTUS45 KBOI 252325
TAFTWF
TAF
KTWF 252325Z 2600/2624 18012KT 2SM -SN BKN025 OVC035
     FM260200 19012KT P6SM OVC050
     FM261200 21015G25KT 2SM -SN BR OVC015
     FM261900 23017G27KT P6SM BKN050=

USA.gov is the U.S. government's official web portal to all federal, state and local government web resources and services.